METAR ET TAF INFORMATION
METAR FOR KRDK
ADDS - METARS form results

(0038 UTC 21 July 2019)
Data provider http://aviationweather.gov/metar/data/
 
METAR text: KRDK 210035Z AUTO 07012G20KT 10SM SCT070 BKN150 28/23 A2983 RMK AO2
Conditions at: KRDK (RED OAK , IA, US) observed 0035 UTC 21 July 2019
Temperature: 28.0°C (82°F)
Dewpoint: 23.0°C (73°F) [RH = 74%]
Pressure (altimeter): 29.83 inches Hg (1010.2 mb)
Winds: from the ENE (70 degrees) at 14 MPH (12 knots; 6.2 m/s)
gusting to 23 MPH (20 knots; 10.3 m/s)
Visibility: 10 or more miles (16+ km)
Ceiling: 15000 feet AGL
Clouds: scattered clouds at 7000 feet AGL
broken clouds at 15000 feet AGL
Weather: automated observation with no human augmentation;
there may or may not be significant weather present at this time

METAR text: KRDK 210015Z AUTO 05012KT 10SM FEW065 FEW140 SCT160 29/24 A2981 RMK AO2
Conditions at: KRDK (RED OAK , IA, US) observed 0015 UTC 21 July 2019
Temperature: 29.0°C (84°F)
Dewpoint: 24.0°C (75°F) [RH = 74%]
Pressure (altimeter): 29.81 inches Hg (1009.6 mb)
Winds: from the NE (50 degrees) at 14 MPH (12 knots; 6.2 m/s)
Visibility: 10 or more miles (16+ km)
Ceiling: at least 12,000 feet AGL
Clouds: few clouds at 6500 feet AGL
few clouds at 14000 feet AGL
scattered clouds at 16000 feet AGL
Weather: automated observation with no human augmentation;
there may or may not be significant weather present at this time

METAR text: KRDK 202355Z AUTO 06014KT 10SM BKN065 BKN150 29/24 A2981 RMK AO2
Conditions at: KRDK (RED OAK , IA, US) observed 2355 UTC 20 July 2019
Temperature: 29.0°C (84°F)
Dewpoint: 24.0°C (75°F) [RH = 74%]
Pressure (altimeter): 29.81 inches Hg (1009.6 mb)
Winds: from the ENE (60 degrees) at 16 MPH (14 knots; 7.2 m/s)
Visibility: 10 or more miles (16+ km)
Ceiling: 6500 feet AGL
Clouds: broken clouds at 6500 feet AGL
broken clouds at 15000 feet AGL
Weather: automated observation with no human augmentation;
there may or may not be significant weather present at this time

 AÉROPORT DE AÉROPORT

 INFORMATIONS DE PISTE
Piste 05 Longueur de la piste 4100 ft Largeur de la piste 75 ft
Élévation de la piste 1042 ft Seuil de la piste déplacés 0 ft Runway heading 58
Piste 23 Longueur de la piste 4100 ft Largeur de la piste 75 ft
Élévation de la piste 1043 ft Seuil de la piste déplacés 0 ft Runway heading 238
Piste 14 Longueur de la piste 2050 ft Largeur de la piste 210 ft
Élévation de la piste 1042 ft Seuil de la piste déplacés 0 ft Runway heading 142
Piste 32 Longueur de la piste 2050 ft Largeur de la piste 210 ft
Élévation de la piste 1039 ft Seuil de la piste déplacés 0 ft Runway heading 322
Piste 17 Longueur de la piste 2901 ft Largeur de la piste 60 ft
Élévation de la piste 1044 ft Seuil de la piste déplacés 0 ft Runway heading 174
Piste 35 Longueur de la piste 2901 ft Largeur de la piste 60 ft
Élévation de la piste 1038 ft Seuil de la piste déplacés 0 ft Runway heading 354

 AÉROPORT FRÉQUENCES
Type A/D Nom OMAHA APP/ Féquence 124.5 MHZ
Type AWOS Nom AWOS 3 Féquence 119.775 MHZ
Type UNIC Nom CTAF/UNICO Féquence 122.8 MHZ

 SIDA DE NAVIGATION



Powered by Virtual Airlines Manager [v2.6.2]